Time;durP1;ratioP1;P1;durP2;ratioP2;P2;SDS_P1;SDS_P2;PMS_P1;PMS_P2;Temp;Humidity;BMP_temperature;BMP_pressure;BME280_temperature;BME280_humidity;BME280_pressure;Samples;Min_cycle;Max_cycle;Signal;HPM_P1;HPM_P2
2021/06/10 00:01:34;;;;;;;6.78;5.18;;;18.50;71.40;;;;;;6305911;22;20074;-83
2021/06/10 00:04:00;;;;;;;6.60;5.68;;;18.40;71.30;;;;;;6279455;22;20014;-83
2021/06/10 00:06:26;;;;;;;5.75;4.85;;;18.40;71.30;;;;;;6279786;22;20037;-83
2021/06/10 00:08:52;;;;;;;5.93;4.28;;;18.40;71.50;;;;;;6279533;22;20452;-83
2021/06/10 00:11:17;;;;;;;7.97;5.25;;;18.40;71.60;;;;;;6306926;22;19996;-83
2021/06/10 00:13:43;;;;;;;7.55;5.28;;;18.40;71.70;;;;;;6279705;22;20027;-83
2021/06/10 00:16:09;;;;;;;7.28;5.07;;;18.40;71.80;;;;;;6307369;22;20310;-83
2021/06/10 00:18:35;;;;;;;8.73;5.15;;;18.40;71.90;;;;;;6278795;22;20007;-83
2021/06/10 00:21:00;;;;;;;6.43;5.10;;;18.40;72.40;;;;;;6279488;22;20048;-83
2021/06/10 00:23:26;;;;;;;5.10;4.60;;;18.40;72.00;;;;;;6307070;22;19999;-83
2021/06/10 00:25:52;;;;;;;7.05;5.20;;;18.40;72.10;;;;;;6279064;22;20011;-83
2021/06/10 00:28:18;;;;;;;7.45;5.07;;;18.40;72.30;;;;;;6306734;22;20085;-83
2021/06/10 00:30:43;;;;;;;4.55;4.15;;;18.40;72.50;;;;;;6278869;22;19999;-83
2021/06/10 00:33:10;;;;;;;4.95;3.90;;;18.40;72.60;;;;;;6279389;22;19996;-83
2021/06/10 00:35:36;;;;;;;7.45;4.28;;;18.40;72.70;;;;;;6306969;22;20022;-83
2021/06/10 00:38:03;;;;;;;9.57;4.97;;;18.30;72.60;;;;;;6279002;22;20007;-83
2021/06/10 00:40:31;;;;;;;8.20;4.43;;;18.30;72.70;;;;;;6279286;22;20064;-83
2021/06/10 00:42:58;;;;;;;5.97;5.18;;;18.30;72.90;;;;;;6306579;22;20311;-83
2021/06/10 00:45:25;;;;;;;6.63;5.28;;;18.40;72.80;;;;;;6279208;22;20015;-83
2021/06/10 00:47:52;;;;;;;7.07;5.20;;;18.40;72.70;;;;;;6306575;22;20038;-83
2021/06/10 00:50:40;;;;;;;6.88;5.60;;;18.40;72.70;;;;;;6279344;22;20311;-83
2021/06/10 00:53:07;;;;;;;6.50;5.85;;;18.40;72.70;;;;;;6279316;22;20008;-83
2021/06/10 00:55:33;;;;;;;8.00;5.28;;;18.40;72.40;;;;;;6306416;22;20042;-83
2021/06/10 00:57:58;;;;;;;10.48;6.10;;;18.40;72.50;;;;;;6306423;22;20003;-83
2021/06/10 01:00:25;;;;;;;6.20;5.60;;;18.30;72.40;;;;;;6306787;22;20082;-83
2021/06/10 01:02:52;;;;;;;6.57;5.88;;;18.20;72.60;;;;;;6279475;22;20003;-83
2021/06/10 01:05:18;;;;;;;7.60;6.22;;;18.30;72.70;;;;;;6306864;22;20078;-83
2021/06/10 01:07:57;;;;;;;6.15;5.55;;;18.20;72.70;;;;;;6306512;22;20003;-83
2021/06/10 01:10:55;;;;;;;6.15;5.50;;;18.30;72.90;;;;;;6306352;22;19995;-83
2021/06/10 01:13:32;;;;;;;7.53;6.25;;;18.30;72.90;;;;;;6279513;22;19999;-83
2021/06/10 01:16:02;;;;;;;7.88;5.25;;;18.30;72.70;;;;;;6279505;22;20008;-83
2021/06/10 01:18:28;;;;;;;6.43;5.82;;;18.40;72.80;;;;;;6306580;22;20408;-83
2021/06/10 01:20:56;;;;;;;6.15;5.55;;;18.40;72.70;;;;;;6279408;22;20629;-83
2021/06/10 01:23:34;;;;;;;6.22;5.20;;;18.40;72.80;;;;;;6307414;22;20075;-83
2021/06/10 01:26:18;;;;;;;6.53;5.75;;;18.40;72.70;;;;;;6308256;22;19999;-83
2021/06/10 01:28:46;;;;;;;7.95;5.57;;;18.40;72.70;;;;;;6280858;22;20026;-84
2021/06/10 01:31:14;;;;;;;10.90;5.43;;;18.30;72.70;;;;;;6280556;22;20341;-83
2021/06/10 01:33:52;;;;;;;5.60;5.07;;;18.30;72.60;;;;;;6308583;22;20069;-83
2021/06/10 01:36:27;;;;;;;7.18;5.82;;;18.30;72.70;;;;;;6308565;22;20003;-83
2021/06/10 01:38:56;;;;;;;6.28;5.50;;;18.30;72.70;;;;;;6308597;22;20429;-83
2021/06/10 01:41:24;;;;;;;6.53;5.70;;;18.20;72.90;;;;;;6281180;22;20087;-83
2021/06/10 01:43:51;;;;;;;6.60;5.93;;;18.20;73.00;;;;;;6280891;22;20404;-83
2021/06/10 01:46:21;;;;;;;7.10;5.65;;;18.20;73.10;;;;;;6280971;22;20008;-83
2021/06/10 01:48:48;;;;;;;7.47;5.63;;;18.20;73.20;;;;;;6281080;22;20078;-83
2021/06/10 01:51:16;;;;;;;10.23;5.28;;;18.10;73.20;;;;;;6280601;22;20007;-83
2021/06/10 01:53:45;;;;;;;8.43;4.50;;;18.20;73.40;;;;;;6281016;22;19999;-83
2021/06/10 01:56:12;;;;;;;6.72;3.63;;;18.20;73.40;;;;;;6308437;22;19999;-83
2021/06/10 01:58:38;;;;;;;5.22;4.00;;;18.30;73.30;;;;;;6307959;22;20433;-83
2021/06/10 02:01:06;;;;;;;6.07;4.72;;;18.30;73.20;;;;;;6281460;22;20008;-83
2021/06/10 02:03:33;;;;;;;7.38;5.00;;;18.30;73.10;;;;;;6280910;22;20003;-83
2021/06/10 02:06:00;;;;;;;5.28;4.50;;;18.20;73.30;;;;;;6307906;22;20003;-83
2021/06/10 02:08:27;;;;;;;6.63;5.18;;;18.10;73.30;;;;;;6308487;22;19999;-83
2021/06/10 02:10:55;;;;;;;8.25;5.40;;;18.20;73.50;;;;;;6307967;22;20422;-83
2021/06/10 02:13:24;;;;;;;6.60;5.90;;;18.20;73.50;;;;;;6280894;22;20003;-83
2021/06/10 02:15:53;;;;;;;7.85;6.07;;;18.20;73.50;;;;;;6280435;22;20003;-83
2021/06/10 02:18:18;;;;;;;10.15;6.53;;;18.20;73.60;;;;;;6280554;22;20102;-83
2021/06/10 02:20:44;;;;;;;8.45;6.28;;;18.10;73.70;;;;;;6280429;22;20035;-83
2021/06/10 02:23:10;;;;;;;7.00;6.30;;;18.10;73.90;;;;;;6280438;22;20068;-83
2021/06/10 02:25:36;;;;;;;7.32;6.63;;;18.10;73.90;;;;;;6307977;22;19995;-83
2021/06/10 02:28:03;;;;;;;8.23;6.57;;;18.10;73.90;;;;;;6280262;22;20009;-83
2021/06/10 02:30:29;;;;;;;6.53;5.93;;;18.10;74.00;;;;;;6280765;22;20014;-83
2021/06/10 02:32:55;;;;;;;4.85;4.35;;;18.00;74.00;;;;;;6280526;22;20003;-83
2021/06/10 02:35:20;;;;;;;5.72;4.60;;;18.00;74.00;;;;;;6280535;22;20003;-83
2021/06/10 02:37:49;;;;;;;3.92;3.50;;;18.00;74.10;;;;;;6307867;22;20003;-85
2021/06/10 02:40:26;;;;;;;3.33;3.03;;;18.00;74.00;;;;;;6280874;22;19999;-85
2021/06/10 02:42:54;;;;;;;4.55;3.67;;;18.00;74.00;;;;;;6308459;22;20002;-85
2021/06/10 02:45:20;;;;;;;7.82;4.22;;;18.00;74.00;;;;;;6307886;22;20011;-85
2021/06/10 02:47:47;;;;;;;5.13;4.05;;;18.00;74.00;;;;;;6280397;22;20012;-85
2021/06/10 02:50:16;;;;;;;5.95;4.20;;;17.90;74.10;;;;;;6280746;22;20052;-85
2021/06/10 02:52:46;;;;;;;5.78;4.43;;;17.90;74.40;;;;;;6281140;22;20003;-85
2021/06/10 02:55:14;;;;;;;4.13;3.20;;;17.90;74.40;;;;;;6280484;22;20088;-85
2021/06/10 02:57:48;;;;;;;3.20;2.90;;;17.90;74.30;;;;;;6280956;22;20003;-85
2021/06/10 03:00:15;;;;;;;5.07;3.25;;;17.80;74.30;;;;;;6307528;22;20003;-83
2021/06/10 03:02:42;;;;;;;6.15;3.85;;;17.80;74.40;;;;;;6280497;22;20003;-83
2021/06/10 03:05:08;;;;;;;5.18;3.67;;;17.90;74.40;;;;;;6307829;22;19999;-83
2021/06/10 03:07:36;;;;;;;3.78;3.10;;;17.90;74.30;;;;;;6280569;22;20345;-83
2021/06/10 03:10:05;;;;;;;4.88;3.20;;;17.90;74.40;;;;;;6280312;22;20003;-83
2021/06/10 03:12:31;;;;;;;7.43;4.00;;;17.90;74.30;;;;;;6280156;22;20025;-83
2021/06/10 03:14:57;;;;;;;4.20;3.42;;;17.90;74.30;;;;;;6280508;22;20023;-83
2021/06/10 03:17:24;;;;;;;4.78;3.70;;;17.90;74.30;;;;;;6280107;22;20003;-83
2021/06/10 03:19:50;;;;;;;4.10;3.70;;;17.90;74.40;;;;;;6279686;22;20456;-83
2021/06/10 03:22:16;;;;;;;3.47;3.10;;;17.90;74.40;;;;;;6280136;22;20004;-83
2021/06/10 03:24:44;;;;;;;5.32;2.80;;;18.00;74.10;;;;;;6308032;22;20006;-83
2021/06/10 03:27:12;;;;;;;3.38;3.05;;;17.90;73.80;;;;;;6280158;22;20094;-83
2021/06/10 03:29:39;;;;;;;3.40;3.10;;;17.90;73.60;;;;;;6280149;22;19995;-83
2021/06/10 03:32:06;;;;;;;4.13;2.70;;;17.90;73.60;;;;;;6307583;22;19995;-83
2021/06/10 03:34:33;;;;;;;5.57;2.70;;;17.90;74.20;;;;;;6280146;22;20147;-84
2021/06/10 03:37:00;;;;;;;4.35;3.13;;;17.80;73.50;;;;;;6280211;22;20014;-83
2021/06/10 03:39:27;;;;;;;4.05;3.15;;;17.90;73.30;;;;;;6279638;22;20008;-83
2021/06/10 03:41:55;;;;;;;3.40;3.08;;;17.90;73.10;;;;;;6307453;22;20421;-83
2021/06/10 03:44:21;;;;;;;3.10;2.55;;;17.90;73.00;;;;;;6274628;22;20061;-83
2021/06/10 03:46:47;;;;;;;3.63;2.88;;;17.90;72.90;;;;;;6274578;22;20034;-83
2021/06/10 03:49:13;;;;;;;4.78;3.40;;;17.90;72.70;;;;;;6276567;22;20000;-83
2021/06/10 03:51:39;;;;;;;7.13;2.97;;;17.90;72.70;;;;;;6275079;22;20000;-83
2021/06/10 03:54:07;;;;;;;3.65;2.90;;;17.90;72.60;;;;;;6276272;22;20330;-83
2021/06/10 03:56:33;;;;;;;2.78;2.58;;;17.90;72.60;;;;;;6274950;22;20003;-83
2021/06/10 03:58:59;;;;;;;6.93;2.60;;;17.90;72.60;;;;;;6274673;22;20003;-83
2021/06/10 04:01:25;;;;;;;4.47;3.65;;;18.00;72.60;;;;;;6276261;22;20007;-83
2021/06/10 04:03:51;;;;;;;7.15;4.38;;;18.00;72.50;;;;;;6276161;22;19996;-83
2021/06/10 04:06:18;;;;;;;7.90;6.10;;;18.10;72.70;;;;;;6274447;22;20316;-83
2021/06/10 04:08:44;;;;;;;7.88;6.40;;;18.00;72.70;;;;;;6275970;22;20549;-83
2021/06/10 04:11:11;;;;;;;8.00;7.18;;;18.00;73.10;;;;;;6273162;22;20035;-83
2021/06/10 04:13:42;;;;;;;5.47;4.75;;;18.10;73.30;;;;;;6273514;22;20027;-83
2021/06/10 04:16:07;;;;;;;7.07;6.38;;;18.00;73.50;;;;;;6274004;22;20004;-83
2021/06/10 04:18:33;;;;;;;7.55;5.18;;;17.90;73.60;;;;;;6275367;22;20032;-83
2021/06/10 04:21:00;;;;;;;7.78;6.97;;;18.00;73.70;;;;;;6275181;22;20038;-83
2021/06/10 04:23:26;;;;;;;8.55;7.72;;;18.00;73.80;;;;;;6273382;22;20019;-84
2021/06/10 04:25:51;;;;;;;8.77;7.88;;;17.90;73.90;;;;;;6273266;22;20008;-83
2021/06/10 04:28:17;;;;;;;9.68;7.75;;;17.80;74.20;;;;;;6275550;22;20060;-83
2021/06/10 04:30:43;;;;;;;8.05;7.10;;;17.90;74.60;;;;;;6274729;22;20026;-83
2021/06/10 04:33:09;;;;;;;10.90;7.93;;;17.90;74.60;;;;;;6273202;22;20038;-84
2021/06/10 04:35:35;;;;;;;9.23;8.40;;;17.90;74.50;;;;;;6273341;22;20004;-83
2021/06/10 04:38:03;;;;;;;8.77;7.63;;;18.00;74.40;;;;;;6275777;22;20362;-83
2021/06/10 04:40:34;;;;;;;9.57;7.75;;;18.00;74.30;;;;;;6273709;22;20011;-83
2021/06/10 04:43:00;;;;;;;10.60;9.32;;;18.00;74.10;;;;;;6273686;22;20091;-83
2021/06/10 04:45:25;;;;;;;11.30;10.10;;;17.90;74.00;;;;;;6273065;22;20039;-83
2021/06/10 04:47:58;;;;;;;9.50;8.60;;;17.90;74.40;;;;;;6275126;22;20008;-83
2021/06/10 04:50:26;;;;;;;;;;;17.80;74.70;;;;;;6274416;22;20010;-83
2021/06/10 04:52:52;;;;;;;8.00;7.18;;;17.90;74.50;;;;;;6273399;22;19906;-82
2021/06/10 04:55:18;;;;;;;8.90;7.88;;;17.90;74.60;;;;;;6274899;22;20224;-83
2021/06/10 04:57:46;;;;;;;9.25;8.35;;;18.00;74.50;;;;;;6275242;22;20027;-82
2021/06/10 05:00:19;;;;;;;8.82;7.93;;;18.00;75.30;;;;;;6276012;22;20113;-83
2021/06/10 05:02:51;;;;;;;9.73;7.15;;;18.00;74.80;;;;;;6278115;22;20381;-83
2021/06/10 05:05:17;;;;;;;8.40;6.03;;;17.90;74.60;;;;;;6276149;22;20003;-83
2021/06/10 05:07:42;;;;;;;5.28;4.35;;;17.90;74.80;;;;;;6275690;22;20253;-83
2021/06/10 05:10:09;;;;;;;10.80;6.25;;;18.00;74.60;;;;;;6277108;22;20082;-83
2021/06/10 05:12:36;;;;;;;7.72;5.78;;;18.20;73.80;;;;;;6277075;22;20004;-83
2021/06/10 05:15:03;;;;;;;11.10;6.97;;;18.10;73.60;;;;;;6275673;22;20007;-84
2021/06/10 05:17:29;;;;;;;9.15;6.07;;;18.10;74.00;;;;;;6276400;22;20011;-83
2021/06/10 05:19:54;;;;;;;7.32;6.40;;;18.00;74.20;;;;;;6275725;22;20054;-83
2021/06/10 05:22:20;;;;;;;7.47;6.68;;;17.90;74.60;;;;;;6276058;22;20384;-83
2021/06/10 05:24:46;;;;;;;9.20;7.07;;;17.90;74.70;;;;;;6276629;22;20015;-83
2021/06/10 05:27:12;;;;;;;8.77;7.97;;;18.00;74.90;;;;;;6276358;22;20007;-83
2021/06/10 05:29:38;;;;;;;10.77;9.50;;;18.00;75.10;;;;;;6275942;22;20004;-83
2021/06/10 05:32:08;;;;;;;12.95;9.75;;;18.00;75.10;;;;;;6275664;22;20466;-83
2021/06/10 05:34:34;;;;;;;14.95;10.00;;;18.00;75.30;;;;;;6276075;22;20023;-83
2021/06/10 05:37:00;;;;;;;10.93;9.77;;;18.00;75.40;;;;;;6276081;22;20004;-83
2021/06/10 05:39:26;;;;;;;12.73;9.90;;;18.00;75.40;;;;;;6276008;22;20014;-83
2021/06/10 05:41:53;;;;;;;12.15;9.55;;;17.90;75.50;;;;;;6277614;22;19999;-83
2021/06/10 05:44:19;;;;;;;11.90;9.68;;;17.80;75.80;;;;;;6283178;22;20019;-83
2021/06/10 05:47:36;;;;;;;13.55;9.32;;;17.90;76.00;;;;;;6281211;22;20441;-83
2021/06/10 05:50:03;;;;;;;12.38;9.30;;;17.80;76.10;;;;;;6281192;22;20004;-83
2021/06/10 05:52:29;;;;;;;13.48;8.07;;;17.80;76.40;;;;;;6280855;22;20010;-83
2021/06/10 05:54:55;;;;;;;8.07;7.28;;;17.80;76.10;;;;;;6281183;22;20004;-83
2021/06/10 05:57:20;;;;;;;9.50;6.40;;;17.80;76.10;;;;;;6308441;22;20057;-83
2021/06/10 05:59:48;;;;;;;8.98;5.78;;;17.80;76.00;;;;;;6308652;22;20018;-83
2021/06/10 06:02:14;;;;;;;7.88;5.68;;;17.80;75.90;;;;;;6280721;22;20495;-83
2021/06/10 06:04:41;;;;;;;9.10;5.40;;;17.80;75.80;;;;;;6308269;22;20078;-83
2021/06/10 06:07:07;;;;;;;8.90;5.60;;;17.80;75.90;;;;;;6280933;22;20152;-83
2021/06/10 06:09:37;;;;;;;11.45;5.72;;;17.70;75.90;;;;;;6307941;22;20026;-83
2021/06/10 06:12:08;;;;;;;7.07;5.05;;;17.70;76.10;;;;;;6280892;22;20041;-83
2021/06/10 06:14:35;;;;;;;9.02;6.72;;;17.70;76.30;;;;;;6308494;22;20019;-83
2021/06/10 06:17:05;;;;;;;8.55;6.90;;;17.70;76.40;;;;;;6307810;22;20003;-83
2021/06/10 06:19:32;;;;;;;10.85;6.22;;;17.60;76.60;;;;;;6280879;22;20052;-83
2021/06/10 06:21:58;;;;;;;9.05;6.45;;;17.70;76.70;;;;;;6307082;22;20026;-83
2021/06/10 06:24:24;;;;;;;7.97;6.85;;;17.70;76.40;;;;;;6281263;22;20003;-83
2021/06/10 06:26:49;;;;;;;9.35;7.53;;;17.70;76.60;;;;;;6280736;22;20003;-83
2021/06/10 06:29:15;;;;;;;18.45;7.13;;;17.70;76.60;;;;;;6281149;22;20314;-83
2021/06/10 06:31:41;;;;;;;11.18;7.30;;;17.70;76.60;;;;;;6280454;22;20004;-83
2021/06/10 06:34:06;;;;;;;7.70;6.88;;;17.80;76.50;;;;;;6280850;22;20004;-83
2021/06/10 06:36:32;;;;;;;9.45;7.18;;;17.70;76.50;;;;;;6308116;22;19999;-83
2021/06/10 06:38:58;;;;;;;11.45;7.88;;;17.80;76.50;;;;;;6281113;22;20011;-83
2021/06/10 06:41:24;;;;;;;13.80;7.95;;;17.80;76.40;;;;;;6280120;22;20057;-83
2021/06/10 06:43:51;;;;;;;13.95;7.90;;;17.80;76.20;;;;;;6280435;22;20033;-83
2021/06/10 06:46:16;;;;;;;11.70;7.25;;;17.80;76.40;;;;;;6280083;22;20068;-83
2021/06/10 06:48:42;;;;;;;12.45;8.02;;;17.80;76.70;;;;;;6307646;22;20435;-83
2021/06/10 06:51:09;;;;;;;9.30;7.15;;;17.80;76.60;;;;;;6306674;22;20068;-83
2021/06/10 06:53:36;;;;;;;8.88;7.25;;;17.90;76.70;;;;;;6307982;22;20003;-83
2021/06/10 06:56:03;;;;;;;9.48;7.07;;;17.90;76.60;;;;;;6307913;22;20019;-83
2021/06/10 06:58:29;;;;;;;7.63;6.82;;;17.90;76.60;;;;;;6306135;22;19995;-83
2021/06/10 07:00:55;;;;;;;7.63;6.32;;;18.00;76.40;;;;;;6306282;22;19999;-83
2021/06/10 07:03:21;;;;;;;7.85;6.50;;;18.00;75.90;;;;;;6306580;22;20000;-83
2021/06/10 07:05:47;;;;;;;11.80;7.03;;;18.00;76.10;;;;;;6278553;22;20003;-83
2021/06/10 07:08:13;;;;;;;9.95;6.32;;;18.00;76.00;;;;;;6307564;22;20056;-83
2021/06/10 07:10:40;;;;;;;8.23;7.00;;;18.00;75.70;;;;;;6279339;22;20452;-83
2021/06/10 07:13:06;;;;;;;7.65;6.53;;;18.00;75.70;;;;;;6307501;22;19999;-83
2021/06/10 07:15:32;;;;;;;7.55;6.75;;;18.10;75.70;;;;;;6280583;22;20003;-83
2021/06/10 07:17:58;;;;;;;7.07;6.43;;;18.20;75.50;;;;;;6279966;22;20011;-83
2021/06/10 07:20:24;;;;;;;5.75;4.63;;;18.20;75.50;;;;;;6278905;22;20380;-83
2021/06/10 07:22:50;;;;;;;7.13;4.72;;;18.20;75.10;;;;;;6307717;22;20078;-83
2021/06/10 07:25:16;;;;;;;6.18;5.57;;;18.30;75.30;;;;;;6280586;22;20010;-83
2021/06/10 07:27:43;;;;;;;6.07;5.28;;;18.50;75.10;;;;;;6279988;22;20003;-83
2021/06/10 07:30:10;;;;;;;5.63;4.85;;;18.60;75.00;;;;;;6279860;22;20007;-83
2021/06/10 07:32:35;;;;;;;5.47;4.35;;;18.60;74.10;;;;;;6280052;22;20648;-82
2021/06/10 07:35:02;;;;;;;6.80;5.03;;;18.70;74.10;;;;;;6280240;22;20025;-83
2021/06/10 07:37:28;;;;;;;5.05;4.55;;;18.80;74.10;;;;;;6307355;22;20433;-83
2021/06/10 07:39:54;;;;;;;6.63;4.30;;;18.90;74.10;;;;;;6280051;22;20082;-83
2021/06/10 07:42:20;;;;;;;5.07;4.15;;;19.10;73.20;;;;;;6306922;22;20336;-83
2021/06/10 07:44:46;;;;;;;4.32;3.80;;;19.10;73.00;;;;;;6307356;22;20327;-83
2021/06/10 07:47:13;;;;;;;5.35;3.75;;;19.20;72.90;;;;;;6279667;22;20007;-83
2021/06/10 07:49:39;;;;;;;7.15;4.65;;;19.30;73.40;;;;;;6279515;22;20014;-83
2021/06/10 07:52:05;;;;;;;6.50;3.78;;;19.40;72.90;;;;;;6279512;22;20341;-83
2021/06/10 07:54:31;;;;;;;3.70;3.22;;;19.50;72.90;;;;;;6280103;22;20010;-83
2021/06/10 07:56:57;;;;;;;6.03;3.53;;;19.60;72.70;;;;;;6279403;22;20380;-83
2021/06/10 07:59:26;;;;;;;6.32;3.20;;;19.70;72.10;;;;;;6280106;22;20504;-83
2021/06/10 08:01:55;;;;;;;5.38;3.72;;;19.80;71.80;;;;;;6279322;22;20003;-83
2021/06/10 08:04:24;;;;;;;5.38;3.83;;;19.80;71.30;;;;;;6279732;22;20349;-83
2021/06/10 08:06:50;;;;;;;3.83;3.40;;;19.90;71.20;;;;;;6306781;22;20003;-83
2021/06/10 08:09:17;;;;;;;6.90;3.70;;;19.90;70.70;;;;;;6279443;22;20014;-83
2021/06/10 08:11:44;;;;;;;5.35;3.17;;;20.00;70.20;;;;;;6279573;22;20430;-83
2021/06/10 08:14:10;;;;;;;3.42;2.97;;;20.20;70.20;;;;;;6279250;22;20064;-83
2021/06/10 08:16:36;;;;;;;3.22;2.70;;;20.30;69.80;;;;;;6279384;22;20034;-84
2021/06/10 08:19:02;;;;;;;4.00;3.38;;;20.30;69.30;;;;;;6279567;22;20003;-83
2021/06/10 08:21:28;;;;;;;4.82;3.03;;;20.40;68.90;;;;;;6306400;22;20007;-83
2021/06/10 08:23:54;;;;;;;4.75;3.42;;;20.50;68.40;;;;;;6279994;22;20030;-84
2021/06/10 08:26:20;;;;;;;5.20;3.33;;;20.60;67.70;;;;;;6279153;22;20007;-83
2021/06/10 08:28:46;;;;;;;3.92;3.20;;;20.60;67.60;;;;;;6307243;22;20325;-83
2021/06/10 08:31:11;;;;;;;4.07;3.67;;;20.70;67.30;;;;;;6279008;22;20000;-83
2021/06/10 08:33:37;;;;;;;3.95;3.47;;;20.90;66.90;;;;;;6278704;22;20003;-83
2021/06/10 08:36:07;;;;;;;4.63;4.20;;;21.00;66.70;;;;;;6279295;22;19999;-83
2021/06/10 08:38:34;;;;;;;4.82;4.03;;;21.00;66.50;;;;;;6307279;22;19995;-83
2021/06/10 08:41:01;;;;;;;4.93;3.80;;;21.10;66.60;;;;;;6279302;22;19999;-83
2021/06/10 08:43:27;;;;;;;5.72;3.78;;;21.10;66.00;;;;;;6279812;22;20446;-83
2021/06/10 08:46:06;;;;;;;4.32;3.70;;;21.20;65.70;;;;;;6274176;22;20450;-83
2021/06/10 08:48:39;;;;;;;4.35;2.75;;;21.40;65.30;;;;;;6273712;22;20004;-83
2021/06/10 08:51:07;;;;;;;5.88;3.40;;;21.60;64.90;;;;;;6275949;22;20765;-83
2021/06/10 08:53:34;;;;;;;3.20;2.90;;;21.70;64.70;;;;;;6274513;22;20003;-83
2021/06/10 08:56:00;;;;;;;4.85;3.40;;;21.70;64.50;;;;;;6274504;22;20062;-83
2021/06/10 08:58:28;;;;;;;5.72;3.60;;;21.70;64.80;;;;;;6274477;22;20087;-84
2021/06/10 09:00:54;;;;;;;6.35;3.53;;;21.80;64.90;;;;;;6274511;22;20050;-84
2021/06/10 09:03:34;;;;;;;4.82;3.40;;;21.90;64.70;;;;;;6274557;22;20004;-84
2021/06/10 09:06:05;;;;;;;6.30;3.83;;;22.10;64.80;;;;;;6274617;22;20003;-84
2021/06/10 09:08:34;;;;;;;4.15;3.75;;;22.10;64.80;;;;;;6274393;22;20008;-84
2021/06/10 09:11:12;;;;;;;4.43;3.97;;;22.10;63.80;;;;;;6274606;22;20057;-84
2021/06/10 09:13:46;;;;;;;4.40;3.35;;;22.20;63.20;;;;;;6274438;22;20202;-84
2021/06/10 09:16:29;;;;;;;6.50;3.22;;;22.20;62.90;;;;;;6274516;22;20011;-84
2021/06/10 09:19:16;;;;;;;4.65;4.13;;;22.30;63.00;;;;;;6274569;22;20091;-84
2021/06/10 09:21:47;;;;;;;6.35;4.47;;;22.40;62.10;;;;;;6274480;22;20450;-84
2021/06/10 09:24:32;;;;;;;4.70;4.03;;;22.30;62.10;;;;;;6274603;22;20027;-84
2021/06/10 09:27:00;;;;;;;5.50;3.58;;;22.30;61.40;;;;;;6274498;22;20008;-85
2021/06/10 09:29:36;;;;;;;7.43;4.75;;;22.40;61.30;;;;;;6274386;22;20007;-84
2021/06/10 09:32:02;;;;;;;6.05;4.40;;;22.50;60.40;;;;;;6273923;22;20129;-84
2021/06/10 09:35:07;;;;;;;5.55;5.05;;;22.60;60.60;;;;;;6274441;22;20027;-84
2021/06/10 09:37:36;;;;;;;5.72;4.65;;;22.80;60.50;;;;;;6269748;22;20050;-84
2021/06/10 09:40:11;;;;;;;5.25;4.72;;;22.80;60.60;;;;;;6274561;22;20010;-84
2021/06/10 09:42:40;;;;;;;5.55;4.78;;;22.90;60.00;;;;;;6274554;22;20015;-84
2021/06/10 09:45:12;;;;;;;6.13;4.90;;;23.00;60.00;;;;;;6275803;22;20028;-84
2021/06/10 09:47:40;;;;;;;4.47;4.07;;;23.10;60.10;;;;;;6276060;22;20442;-84
2021/06/10 09:50:27;;;;;;;5.07;4.30;;;23.20;59.90;;;;;;6276352;22;20005;-84
2021/06/10 09:52:55;;;;;;;4.95;3.80;;;23.30;58.90;;;;;;6276140;22;20049;-84
2021/06/10 09:55:42;;;;;;;3.90;3.05;;;23.30;58.70;;;;;;6276781;22;20000;-85
2021/06/10 09:58:11;;;;;;;3.38;3.08;;;23.40;58.50;;;;;;6275820;22;20099;-84
2021/06/10 10:00:38;;;;;;;3.60;2.92;;;23.50;57.80;;;;;;6275657;22;20077;-84
2021/06/10 10:03:04;;;;;;;4.55;2.85;;;23.50;57.40;;;;;;6276018;22;20004;-84
2021/06/10 10:05:30;;;;;;;5.50;3.33;;;23.50;57.30;;;;;;6275688;22;20011;-84
2021/06/10 10:07:56;;;;;;;4.50;3.28;;;23.60;56.90;;;;;;6275669;22;20468;-84
2021/06/10 10:10:23;;;;;;;3.40;3.10;;;23.70;56.30;;;;;;6277160;22;20004;-84
2021/06/10 10:12:54;;;;;;;4.53;3.03;;;23.70;55.90;;;;;;6275617;22;20007;-84
2021/06/10 10:15:20;;;;;;;6.28;3.78;;;23.70;55.80;;;;;;6276026;22;20070;-84
2021/06/10 10:17:50;;;;;;;3.25;2.97;;;23.80;56.10;;;;;;6275606;22;20004;-84
2021/06/10 10:20:17;;;;;;;3.83;2.88;;;24.00;55.40;;;;;;6276230;22;20446;-84
2021/06/10 10:22:45;;;;;;;4.10;2.50;;;24.10;54.80;;;;;;6275982;22;20433;-84
2021/06/10 10:25:11;;;;;;;2.95;2.75;;;24.20;54.40;;;;;;6276131;22;20109;-84
2021/06/10 10:27:37;;;;;;;2.28;2.08;;;24.30;54.90;;;;;;6275753;22;20010;-84
2021/06/10 10:30:04;;;;;;;3.75;2.20;;;24.40;54.50;;;;;;6275546;22;20000;-84
2021/06/10 10:32:30;;;;;;;2.92;2.08;;;24.60;54.00;;;;;;6275612;22;20000;-84
2021/06/10 10:35:21;;;;;;;2.47;2.15;;;24.50;52.90;;;;;;6275599;22;20000;-84
2021/06/10 10:37:47;;;;;;;1.65;1.50;;;24.30;52.10;;;;;;6275166;22;20008;-84
2021/06/10 10:40:25;;;;;;;3.05;1.58;;;24.20;52.00;;;;;;6274873;22;20004;-84
2021/06/10 10:42:54;;;;;;;3.13;1.73;;;24.00;51.30;;;;;;6276718;22;20000;-84
2021/06/10 10:45:26;;;;;;;4.32;2.08;;;23.90;51.80;;;;;;6274888;22;20027;-84
2021/06/10 10:47:59;;;;;;;;;;;23.70;51.90;;;;;;6275968;22;20004;-84
2021/06/10 10:50:47;;;;;;;4.43;1.85;;;23.60;52.70;;;;;;6275231;22;19900;-84
2021/06/10 10:53:19;;;;;;;2.63;2.10;;;23.50;53.30;;;;;;6275049;22;20012;-83
2021/06/10 10:56:05;;;;;;;7.47;2.42;;;23.50;53.50;;;;;;6275248;22;20000;-84
2021/06/10 10:58:31;;;;;;;3.08;2.35;;;23.50;53.60;;;;;;6276710;22;20434;-84
2021/06/10 11:01:02;;;;;;;3.33;1.98;;;23.40;53.50;;;;;;6276932;22;20000;-83
2021/06/10 11:03:29;;;;;;;5.90;1.83;;;23.30;53.70;;;;;;6275252;22;20004;-82
2021/06/10 11:05:56;;;;;;;5.32;2.10;;;23.20;54.20;;;;;;6276289;22;20045;-83
2021/06/10 11:08:24;;;;;;;6.63;2.70;;;23.20;55.40;;;;;;6274870;22;20035;-83
2021/06/10 11:10:54;;;;;;;4.50;2.80;;;23.20;56.20;;;;;;6275318;22;20003;-82
2021/06/10 11:13:27;;;;;;;4.65;2.80;;;23.20;56.70;;;;;;6274785;22;20008;-82
2021/06/10 11:16:00;;;;;;;4.72;2.88;;;23.20;57.30;;;;;;6275036;22;20008;-82
2021/06/10 11:18:39;;;;;;;5.97;2.90;;;23.10;57.60;;;;;;6274262;22;20031;-83
2021/06/10 11:21:05;;;;;;;4.22;2.78;;;23.00;58.40;;;;;;6273651;22;20046;-83
2021/06/10 11:23:31;;;;;;;4.03;2.70;;;23.00;59.30;;;;;;6274239;22;20000;-82
2021/06/10 11:25:59;;;;;;;5.07;3.13;;;23.00;60.20;;;;;;6273424;22;20003;-83
2021/06/10 11:28:28;;;;;;;4.15;2.63;;;23.10;60.40;;;;;;6275721;22;20004;-82
2021/06/10 11:31:13;;;;;;;2.35;2.15;;;23.20;60.20;;;;;;6273790;22;20000;-82
2021/06/10 11:33:39;;;;;;;7.40;2.60;;;23.30;60.10;;;;;;6273842;22;20069;-82
2021/06/10 11:36:10;;;;;;;2.28;2.05;;;23.60;59.80;;;;;;6274092;22;20008;-82
2021/06/10 11:38:44;;;;;;;2.55;1.85;;;23.90;57.70;;;;;;6274649;22;20422;-82
2021/06/10 11:41:11;;;;;;;4.10;2.17;;;24.10;55.50;;;;;;6275159;22;20004;-82
2021/06/10 11:43:42;;;;;;;1.90;1.80;;;24.20;55.00;;;;;;6276446;22;20000;-82
2021/06/10 11:46:13;;;;;;;4.03;2.23;;;24.30;54.20;;;;;;6274230;22;20482;-82
2021/06/10 11:48:42;;;;;;;2.00;1.80;;;24.20;54.00;;;;;;6274572;22;20508;-82
2021/06/10 11:51:24;;;;;;;2.00;1.80;;;24.20;53.90;;;;;;6274228;22;19996;-82
2021/06/10 11:53:52;;;;;;;2.22;2.03;;;24.40;52.30;;;;;;6274755;22;20006;-82
2021/06/10 11:56:28;;;;;;;3.38;2.40;;;24.40;52.40;;;;;;6274441;22;20010;-82
2021/06/10 11:58:58;;;;;;;3.63;2.40;;;24.40;52.70;;;;;;6274450;22;20442;-82
2021/06/10 12:01:24;;;;;;;3.20;2.90;;;24.50;53.00;;;;;;6275039;22;20007;-83
2021/06/10 12:03:50;;;;;;;3.35;2.30;;;24.60;53.10;;;;;;6273764;22;20435;-82
2021/06/10 12:06:17;;;;;;;4.15;2.78;;;24.70;53.30;;;;;;6273808;22;20008;-82
2021/06/10 12:08:46;;;;;;;3.13;2.83;;;24.80;54.00;;;;;;6274375;22;20004;-83
2021/06/10 12:11:15;;;;;;;4.57;2.50;;;24.90;54.20;;;;;;6274581;22;20007;-83
2021/06/10 12:13:50;;;;;;;2.75;2.53;;;24.80;53.70;;;;;;6274734;22;20000;-83
2021/06/10 12:16:20;;;;;;;3.58;2.45;;;24.60;53.30;;;;;;6274829;22;19995;-83
2021/06/10 12:18:49;;;;;;;4.35;2.35;;;24.60;53.90;;;;;;6274857;22;20095;-83
2021/06/10 12:21:23;;;;;;;2.67;2.40;;;24.60;53.70;;;;;;6275848;22;20026;-83
2021/06/10 12:23:58;;;;;;;4.07;2.60;;;24.70;53.40;;;;;;6275810;22;20000;-83
2021/06/10 12:26:26;;;;;;;5.82;2.15;;;24.80;52.90;;;;;;6274001;22;20086;-82
2021/06/10 12:28:57;;;;;;;2.55;2.33;;;24.90;52.60;;;;;;6274474;22;20417;-83
2021/06/10 12:31:28;;;;;;;4.55;2.65;;;25.00;52.00;;;;;;6274735;22;20061;-83
2021/06/10 12:34:04;;;;;;;3.00;2.40;;;25.10;51.90;;;;;;6276385;22;20462;-82
2021/06/10 12:36:44;;;;;;;6.35;2.20;;;25.10;51.40;;;;;;6273959;22;20011;-83
2021/06/10 12:39:15;;;;;;;3.15;2.35;;;25.20;50.70;;;;;;6273739;22;20015;-83
2021/06/10 12:41:47;;;;;;;2.53;2.20;;;25.30;50.00;;;;;;6275370;22;20000;-83
2021/06/10 12:44:27;;;;;;;2.28;2.03;;;25.30;49.20;;;;;;6278492;22;20007;-83
2021/06/10 12:47:02;;;;;;;3.55;2.25;;;25.30;48.70;;;;;;6278754;22;20007;-82
2021/06/10 12:49:43;;;;;;;3.00;2.00;;;25.40;48.70;;;;;;6279469;22;20030;-83
2021/06/10 12:52:26;;;;;;;2.13;1.77;;;25.40;48.40;;;;;;6279199;22;20480;-83
2021/06/10 12:55:00;;;;;;;2.60;2.10;;;25.40;47.80;;;;;;6278713;22;20004;-83